Terminal Aerodrome Forecast
Issued by NWS Shreveport, LA

Home | Current Version | Previous Version | Text Only | Print | Product List | Glossary On
Versions: 1 2 3 4 5 6 7 8 9 10 11 12 13 14 15 16 17
000
FTUS44 KSHV 252104 AAB
TAFGGG
TAF AMD
KGGG 252104Z 2521/2618 21005KT P6SM VCTS SCT050CB BKN120
      TEMPO 2521/2522 VRB15G20KT -TSRA BKN050CB
     FM260100 17005KT P6SM SCT120
     FM261200 19008KT 5SM BR FEW100
     FM261600 VRB05KT P6SM VCTS SCT040CB BKN100=

USA.gov is the U.S. government's official web portal to all federal, state and local government web resources and services.